createdAt,value
2023-05-05T00:02:18.351Z,36.76
2023-05-05T00:04:44.749Z,36.42
2023-05-05T00:07:11.162Z,36.92
2023-05-05T00:09:37.672Z,36.99
2023-05-05T00:12:04.236Z,37.19
2023-05-05T00:14:30.801Z,37.36
2023-05-05T00:16:57.316Z,36.96
2023-05-05T00:19:23.836Z,36.42
2023-05-05T00:21:50.189Z,36.70
2023-05-05T00:24:16.633Z,35.70
2023-05-05T00:26:43.088Z,35.92
2023-05-05T00:29:09.604Z,35.88
2023-05-05T00:31:39.126Z,35.69
2023-05-05T00:34:05.699Z,35.92
2023-05-05T00:36:32.097Z,35.80
2023-05-05T00:38:58.465Z,35.80
2023-05-05T00:41:24.877Z,35.92
2023-05-05T00:43:51.445Z,36.03
2023-05-05T00:46:17.976Z,36.08
2023-05-05T00:48:46.490Z,36.48
2023-05-05T00:51:12.948Z,36.80
2023-05-05T00:53:39.366Z,36.95
2023-05-05T00:56:05.942Z,37.14
2023-05-05T00:58:32.373Z,37.83
2023-05-05T01:00:58.755Z,37.81
2023-05-05T01:03:25.388Z,37.71
2023-05-05T01:05:51.928Z,38.14
2023-05-05T01:08:18.505Z,38.15
2023-05-05T01:10:44.943Z,37.93
2023-05-05T01:13:11.507Z,38.19
2023-05-05T01:15:38.041Z,38.21
2023-05-05T01:18:05.636Z,38.60
2023-05-05T01:20:32.060Z,37.87
2023-05-05T01:22:58.584Z,38.53
2023-05-05T01:25:24.944Z,38.21
2023-05-05T01:27:51.426Z,38.52
2023-05-05T01:30:17.853Z,38.57
2023-05-05T01:32:44.235Z,38.49
2023-05-05T01:35:10.685Z,38.53
2023-05-05T01:37:38.851Z,38.49
2023-05-05T01:40:05.457Z,38.53
2023-05-05T01:42:35.261Z,40.25
2023-05-05T01:45:01.728Z,39.41
2023-05-05T01:47:28.142Z,40.01
2023-05-05T01:49:54.722Z,40.45
2023-05-05T01:52:21.170Z,39.84
2023-05-05T01:54:47.540Z,39.72
2023-05-05T01:57:13.955Z,39.87
2023-05-05T01:59:40.428Z,39.80
2023-05-05T02:02:06.882Z,39.52
2023-05-05T02:04:35.526Z,38.88
2023-05-05T02:07:02.016Z,39.26
2023-05-05T02:09:28.595Z,40.41
2023-05-05T02:11:54.974Z,40.02
2023-05-05T02:14:22.612Z,40.60
2023-05-05T02:16:49.006Z,40.44
2023-05-05T02:19:15.403Z,40.25
2023-05-05T02:21:41.776Z,41.52
2023-05-05T02:24:08.185Z,41.04
2023-05-05T02:26:34.744Z,40.37
2023-05-05T02:29:01.146Z,40.83
2023-05-05T02:31:27.938Z,40.92
2023-05-05T02:33:54.565Z,40.64
2023-05-05T02:36:20.980Z,40.93
2023-05-05T02:38:49.336Z,41.49
2023-05-05T02:41:15.703Z,41.37
2023-05-05T02:43:42.129Z,41.48
2023-05-05T02:46:12.607Z,40.68
2023-05-05T02:48:39.026Z,41.63
2023-05-05T02:51:12.616Z,40.99
2023-05-05T02:53:39.042Z,41.12
2023-05-05T02:56:05.636Z,41.56
2023-05-05T02:58:32.000Z,41.25
2023-05-05T03:00:58.471Z,41.06
2023-05-05T03:03:24.918Z,41.60
2023-05-05T03:05:51.359Z,41.67
2023-05-05T03:08:17.769Z,41.87
2023-05-05T03:10:44.211Z,41.59
2023-05-05T03:13:10.769Z,41.24
2023-05-05T03:15:37.209Z,41.51
2023-05-05T03:18:03.634Z,41.71
2023-05-05T03:20:30.188Z,41.77
2023-05-05T03:22:56.616Z,42.54
2023-05-05T03:25:23.048Z,43.11
2023-05-05T03:27:49.419Z,43.55
2023-05-05T03:30:15.843Z,42.55
2023-05-05T03:32:42.296Z,42.60
2023-05-05T03:35:08.733Z,42.01
2023-05-05T03:37:35.139Z,41.77
2023-05-05T03:40:01.622Z,42.29
2023-05-05T03:42:30.813Z,42.07
2023-05-05T03:44:57.302Z,41.68
2023-05-05T03:47:23.678Z,41.57
2023-05-05T03:49:50.164Z,41.75
2023-05-05T03:52:16.555Z,41.85
2023-05-05T03:54:43.284Z,41.73
2023-05-05T03:57:09.650Z,41.55
2023-05-05T03:59:36.275Z,41.47
2023-05-05T04:02:02.762Z,41.82
2023-05-05T04:04:29.196Z,41.83
2023-05-05T04:06:55.691Z,41.98
2023-05-05T04:09:22.157Z,42.04
2023-05-05T04:11:48.578Z,41.98
2023-05-05T04:14:14.941Z,41.90
2023-05-05T04:16:41.373Z,42.08
2023-05-05T04:19:07.753Z,41.89
2023-05-05T04:21:34.759Z,41.72
2023-05-05T04:24:01.221Z,41.28
2023-05-05T04:26:27.646Z,41.08
2023-05-05T04:28:54.040Z,41.25
2023-05-05T04:31:23.431Z,41.48
2023-05-05T04:33:49.908Z,41.90
2023-05-05T04:36:16.300Z,41.39
2023-05-05T04:38:42.704Z,41.80
2023-05-05T04:41:09.150Z,42.00
2023-05-05T04:43:35.996Z,41.73
2023-05-05T04:46:02.391Z,41.60
2023-05-05T04:48:30.724Z,41.93
2023-05-05T04:50:57.296Z,41.88
2023-05-05T04:53:23.727Z,42.18
2023-05-05T04:55:50.141Z,42.46
2023-05-05T04:58:16.567Z,41.82
2023-05-05T05:00:42.969Z,41.78
2023-05-05T05:03:09.434Z,42.08
2023-05-05T05:05:35.906Z,42.17
2023-05-05T05:08:07.042Z,42.16
2023-05-05T05:10:33.594Z,42.76
2023-05-05T05:13:00.065Z,42.92
2023-05-05T05:15:26.653Z,43.07
2023-05-05T05:17:53.158Z,42.78
2023-05-05T05:20:19.621Z,43.37
2023-05-05T05:22:46.008Z,43.57
2023-05-05T05:25:12.376Z,42.94
2023-05-05T05:27:38.863Z,42.85
2023-05-05T05:30:05.418Z,42.81
2023-05-05T05:32:31.950Z,41.87
2023-05-05T05:34:58.416Z,41.64
2023-05-05T05:37:24.817Z,41.75
2023-05-05T05:39:51.266Z,41.27
2023-05-05T05:42:17.677Z,41.45
2023-05-05T05:44:45.283Z,40.54
2023-05-05T05:47:14.798Z,40.54
2023-05-05T05:49:41.209Z,40.89
2023-05-05T05:52:07.685Z,40.81
2023-05-05T05:54:34.101Z,40.81
2023-05-05T05:57:00.676Z,40.48
2023-05-05T05:59:27.077Z,40.54
2023-05-05T06:01:53.642Z,40.21
2023-05-05T06:04:20.060Z,41.14
2023-05-05T06:06:46.493Z,40.75
2023-05-05T06:09:13.048Z,41.66
2023-05-05T06:11:39.587Z,42.13
2023-05-05T06:14:06.041Z,41.30
2023-05-05T06:16:32.779Z,40.85
2023-05-05T06:18:59.723Z,41.10
2023-05-05T06:21:26.094Z,41.47
2023-05-05T06:23:55.042Z,41.45
2023-05-05T06:26:21.511Z,41.89
2023-05-05T06:28:48.068Z,40.91
2023-05-05T06:31:14.540Z,40.11
2023-05-05T06:33:40.954Z,40.29
2023-05-05T06:36:07.674Z,39.86
2023-05-05T06:38:34.408Z,39.43
2023-05-05T06:41:00.836Z,40.19
2023-05-05T06:43:29.795Z,40.18
2023-05-05T06:45:56.185Z,40.24
2023-05-05T06:48:22.856Z,39.57
2023-05-05T06:50:49.305Z,38.17
2023-05-05T06:53:17.701Z,37.47
2023-05-05T06:55:44.092Z,37.68
2023-05-05T06:58:10.533Z,37.45
2023-05-05T07:00:39.019Z,36.96
2023-05-05T07:03:05.506Z,36.69
2023-05-05T07:05:35.043Z,37.43
2023-05-05T07:08:01.499Z,37.49
2023-05-05T07:10:28.093Z,37.17
2023-05-05T07:12:54.590Z,36.14
2023-05-05T07:15:28.578Z,37.13
2023-05-05T07:17:57.976Z,37.10
2023-05-05T07:20:24.746Z,36.94
2023-05-05T07:22:51.309Z,36.38
2023-05-05T07:25:17.780Z,36.11
2023-05-05T07:27:44.298Z,36.53
2023-05-05T07:30:15.365Z,36.12
2023-05-05T07:32:42.979Z,36.06
2023-05-05T07:35:09.502Z,35.75
2023-05-05T07:37:35.982Z,35.73
2023-05-05T07:40:02.466Z,35.96
2023-05-05T07:42:28.873Z,36.45
2023-05-05T07:44:55.480Z,36.39
2023-05-05T07:47:24.126Z,35.50
2023-05-05T07:49:52.851Z,35.14
2023-05-05T07:52:21.475Z,34.80
2023-05-05T07:54:53.833Z,34.52
2023-05-05T07:57:21.720Z,33.59
2023-05-05T07:59:48.225Z,33.48
2023-05-05T08:02:17.532Z,33.90
2023-05-05T08:04:44.048Z,33.55
2023-05-05T08:07:10.538Z,33.14
2023-05-05T08:09:37.028Z,32.83
2023-05-05T08:12:03.441Z,32.96
2023-05-05T08:14:29.985Z,34.23
2023-05-05T08:16:58.465Z,33.58
2023-05-05T08:19:29.172Z,33.06
2023-05-05T08:21:55.931Z,33.18
2023-05-05T08:24:22.526Z,34.04
2023-05-05T08:26:48.937Z,34.11
2023-05-05T08:29:15.349Z,32.97
2023-05-05T08:31:41.796Z,32.95
2023-05-05T08:34:08.241Z,33.36
2023-05-05T08:36:34.636Z,32.83
2023-05-05T08:39:01.433Z,32.63
2023-05-05T08:41:27.872Z,32.20
2023-05-05T08:43:54.394Z,32.35
2023-05-05T08:46:21.079Z,32.89
2023-05-05T08:48:47.519Z,32.50
2023-05-05T08:51:13.905Z,33.60
2023-05-05T08:53:40.504Z,33.27
2023-05-05T08:56:06.976Z,32.96
2023-05-05T08:58:36.520Z,32.47
2023-05-05T09:01:02.917Z,33.28
2023-05-05T09:03:29.389Z,34.18
2023-05-05T09:05:55.837Z,33.38
2023-05-05T09:08:22.421Z,33.06
2023-05-05T09:10:48.850Z,32.79
2023-05-05T09:13:15.384Z,33.22
2023-05-05T09:15:41.834Z,34.29
2023-05-05T09:18:08.256Z,33.77
2023-05-05T09:20:34.661Z,33.45
2023-05-05T09:23:01.076Z,33.14
2023-05-05T09:25:27.519Z,32.49
2023-05-05T09:27:53.901Z,33.39
2023-05-05T09:30:20.430Z,33.03
2023-05-05T09:32:49.101Z,33.53
2023-05-05T09:35:15.631Z,32.75
2023-05-05T09:37:42.899Z,31.88
2023-05-05T09:40:11.659Z,32.65
2023-05-05T09:42:38.042Z,33.54
2023-05-05T09:45:04.507Z,34.63
2023-05-05T09:47:31.700Z,34.29
2023-05-05T09:49:59.269Z,32.89
2023-05-05T09:52:25.669Z,33.18
2023-05-05T09:54:52.066Z,34.09
2023-05-05T09:57:18.649Z,32.56
2023-05-05T09:59:45.105Z,31.74
2023-05-05T10:02:12.660Z,31.92
2023-05-05T10:04:39.100Z,32.52
2023-05-05T10:07:05.700Z,32.05
2023-05-05T10:09:32.108Z,32.30
2023-05-05T10:11:58.485Z,32.63
2023-05-05T10:14:24.904Z,32.06
2023-05-05T10:16:51.327Z,32.37
2023-05-05T10:19:20.836Z,31.99
2023-05-05T10:21:47.315Z,31.15
2023-05-05T10:24:13.755Z,32.28
2023-05-05T10:26:40.175Z,33.42
2023-05-05T10:29:06.551Z,32.80
2023-05-05T10:31:32.986Z,31.80
2023-05-05T10:34:01.838Z,30.73
2023-05-05T10:36:28.371Z,30.63
2023-05-05T10:38:54.746Z,31.08
2023-05-05T10:41:21.180Z,30.65
2023-05-05T10:43:47.661Z,31.29
2023-05-05T10:46:14.156Z,31.11
2023-05-05T10:48:40.821Z,31.22
2023-05-05T10:51:07.239Z,31.43
2023-05-05T10:53:33.641Z,31.03
2023-05-05T10:56:00.038Z,31.28
2023-05-05T10:58:26.454Z,30.51
2023-05-05T11:00:52.919Z,30.31
2023-05-05T11:03:19.663Z,30.67
2023-05-05T11:05:47.497Z,31.60
2023-05-05T11:08:15.587Z,31.41
2023-05-05T11:10:45.048Z,30.90
2023-05-05T11:13:11.666Z,29.67
2023-05-05T11:15:38.212Z,30.08
2023-05-05T11:18:07.500Z,31.19
2023-05-05T11:20:34.666Z,31.08
2023-05-05T11:23:01.089Z,30.92
2023-05-05T11:25:27.620Z,30.60
2023-05-05T11:27:54.121Z,30.55
2023-05-05T11:30:20.531Z,30.51
2023-05-05T11:32:47.168Z,30.30
2023-05-05T11:35:13.650Z,29.22
2023-05-05T11:37:40.025Z,29.38
2023-05-05T11:40:09.461Z,29.34
2023-05-05T11:42:36.168Z,28.98
2023-05-05T11:45:02.569Z,28.79
2023-05-05T11:47:29.031Z,29.00
2023-05-05T11:49:55.593Z,29.14
2023-05-05T11:52:22.032Z,28.96
2023-05-05T11:54:48.412Z,28.97
2023-05-05T11:57:14.820Z,29.56
2023-05-05T11:59:41.338Z,28.97
2023-05-05T12:02:07.710Z,28.53
2023-05-05T12:04:34.340Z,28.75
2023-05-05T12:07:00.731Z,28.49
2023-05-05T12:09:27.173Z,28.37
2023-05-05T12:11:53.690Z,29.48
2023-05-05T12:14:20.200Z,27.89
2023-05-05T12:16:48.985Z,26.09
2023-05-05T12:19:15.515Z,26.28
2023-05-05T12:21:41.955Z,26.67
2023-05-05T12:24:08.441Z,25.90
2023-05-05T12:26:34.876Z,26.41
2023-05-05T12:29:01.403Z,27.13
2023-05-05T12:31:27.831Z,27.60
2023-05-05T12:33:54.571Z,26.96
2023-05-05T12:36:21.051Z,27.79
2023-05-05T12:38:47.554Z,28.03
2023-05-05T12:41:14.102Z,27.77
2023-05-05T12:43:40.655Z,28.06
2023-05-05T12:46:07.232Z,27.48
2023-05-05T12:48:33.710Z,28.03
2023-05-05T12:51:00.176Z,26.33
2023-05-05T12:53:26.665Z,26.85
2023-05-05T12:55:53.073Z,26.42
2023-05-05T12:58:19.516Z,26.47
2023-05-05T13:00:46.049Z,26.83
2023-05-05T13:03:12.742Z,26.42
2023-05-05T13:05:39.750Z,26.48
2023-05-05T13:08:06.173Z,25.60
2023-05-05T13:10:33.849Z,25.69
2023-05-05T13:13:00.314Z,26.23
2023-05-05T13:15:26.732Z,26.20
2023-05-05T13:17:53.202Z,25.27
2023-05-05T13:20:19.596Z,24.64
2023-05-05T13:22:46.036Z,24.91
2023-05-05T13:25:12.595Z,25.36
2023-05-05T13:27:39.153Z,25.26
2023-05-05T13:30:10.485Z,24.85
2023-05-05T13:32:37.319Z,24.60
2023-05-05T13:35:03.819Z,25.11
2023-05-05T13:37:30.223Z,25.16
2023-05-05T13:39:56.601Z,25.54
2023-05-05T13:42:23.030Z,25.21
2023-05-05T13:44:49.492Z,25.17
2023-05-05T13:47:15.936Z,25.32
2023-05-05T13:49:42.510Z,24.94
2023-05-05T13:52:08.970Z,25.41
2023-05-05T13:54:35.506Z,26.45
2023-05-05T13:57:01.945Z,26.48
2023-05-05T13:59:28.366Z,25.78
2023-05-05T14:01:54.789Z,25.87
2023-05-05T14:04:21.368Z,24.96
2023-05-05T14:06:47.881Z,25.28
2023-05-05T14:09:14.299Z,24.74
2023-05-05T14:11:40.673Z,26.00
2023-05-05T14:14:07.502Z,25.42
2023-05-05T14:16:34.000Z,24.75
2023-05-05T14:19:00.633Z,23.62
2023-05-05T14:21:27.007Z,23.77
2023-05-05T14:23:53.550Z,24.31
2023-05-05T14:26:19.947Z,24.71
2023-05-05T14:28:48.951Z,24.31
2023-05-05T14:31:16.168Z,23.57
2023-05-05T14:33:42.578Z,22.09
2023-05-05T14:36:08.986Z,21.05
2023-05-05T14:38:35.538Z,20.12
2023-05-05T14:41:02.056Z,19.40
2023-05-05T14:43:28.666Z,20.84
2023-05-05T14:45:55.180Z,21.66
2023-05-05T14:48:23.989Z,23.47
2023-05-05T14:50:50.429Z,23.48
2023-05-05T14:53:19.628Z,23.01
2023-05-05T14:55:46.049Z,21.84
2023-05-05T14:58:12.504Z,20.48
2023-05-05T15:00:38.938Z,20.36
2023-05-05T15:03:05.438Z,18.97
2023-05-05T15:05:31.940Z,18.79
2023-05-05T15:07:58.477Z,17.59
2023-05-05T15:10:24.972Z,19.28
2023-05-05T15:12:51.473Z,21.37
2023-05-05T15:15:17.926Z,22.55
2023-05-05T15:17:44.421Z,23.59
2023-05-05T15:20:10.875Z,24.45
2023-05-05T15:22:37.577Z,25.10
2023-05-05T15:25:03.999Z,25.47
2023-05-05T15:27:30.507Z,24.38
2023-05-05T15:29:56.992Z,24.78
2023-05-05T15:32:23.437Z,25.67
2023-05-05T15:34:50.452Z,26.10
2023-05-05T15:37:17.073Z,26.34
2023-05-05T15:39:43.612Z,26.03
2023-05-05T15:42:10.169Z,26.51
2023-05-05T15:44:36.655Z,27.02
2023-05-05T15:47:03.062Z,26.73
2023-05-05T15:49:29.627Z,26.09
2023-05-05T15:51:56.033Z,25.67
2023-05-05T15:54:22.466Z,26.46
2023-05-05T15:56:48.898Z,27.12
2023-05-05T15:59:15.543Z,27.54
2023-05-05T16:01:42.020Z,27.28
2023-05-05T16:04:08.407Z,26.94
2023-05-05T16:06:34.824Z,26.60
2023-05-05T16:09:01.191Z,23.17
2023-05-05T16:11:27.556Z,21.06
2023-05-05T16:13:53.982Z,19.90
2023-05-05T16:16:20.654Z,20.04
2023-05-05T16:18:47.153Z,18.97
2023-05-05T16:21:13.958Z,17.72
2023-05-05T16:23:40.351Z,16.50
2023-05-05T16:26:06.757Z,16.38
2023-05-05T16:28:33.176Z,16.99
2023-05-05T16:30:59.574Z,18.58
2023-05-05T16:33:26.023Z,19.82
2023-05-05T16:35:52.451Z,20.51
2023-05-05T16:38:19.081Z,22.68
2023-05-05T16:40:45.540Z,22.56
2023-05-05T16:43:11.986Z,22.39
2023-05-05T16:45:38.406Z,22.55
2023-05-05T16:48:07.424Z,23.99
2023-05-05T16:50:35.321Z,24.40
2023-05-05T16:53:01.726Z,25.33
2023-05-05T16:55:28.155Z,25.55
2023-05-05T16:57:54.857Z,25.80
2023-05-05T17:00:21.245Z,26.16
2023-05-05T17:02:47.651Z,25.93
2023-05-05T17:05:14.156Z,26.11
2023-05-05T17:07:40.658Z,26.00
2023-05-05T17:10:07.115Z,26.49
2023-05-05T17:12:33.646Z,27.57
2023-05-05T17:15:00.180Z,27.31
2023-05-05T17:17:26.864Z,27.59
2023-05-05T17:19:57.384Z,28.14
2023-05-05T17:22:24.024Z,29.45
2023-05-05T17:24:50.509Z,29.10
2023-05-05T17:27:17.012Z,29.63
2023-05-05T17:29:43.569Z,30.26
2023-05-05T17:32:10.189Z,30.73
2023-05-05T17:34:36.750Z,30.92
2023-05-05T17:37:10.269Z,31.27
2023-05-05T17:39:36.831Z,31.81
2023-05-05T17:42:05.181Z,31.63
2023-05-05T17:44:31.572Z,32.03
2023-05-05T17:46:58.008Z,32.72
2023-05-05T17:49:24.475Z,32.41
2023-05-05T17:51:50.909Z,32.53
2023-05-05T17:54:17.557Z,32.63
2023-05-05T17:56:44.138Z,33.12
2023-05-05T17:59:10.544Z,32.69
2023-05-05T18:01:37.060Z,32.88
2023-05-05T18:04:03.552Z,33.04
2023-05-05T18:06:30.038Z,32.93
2023-05-05T18:08:56.518Z,32.67
2023-05-05T18:11:22.949Z,32.70
2023-05-05T18:13:49.461Z,32.66
2023-05-05T18:16:15.853Z,32.50
2023-05-05T18:18:45.365Z,32.45
2023-05-05T18:21:11.893Z,32.44
2023-05-05T18:23:38.491Z,32.16
2023-05-05T18:26:04.899Z,32.44
2023-05-05T18:28:31.278Z,32.28
2023-05-05T18:30:57.914Z,32.62
2023-05-05T18:33:24.470Z,33.12
2023-05-05T18:35:50.842Z,33.16
2023-05-05T18:38:17.228Z,32.91
2023-05-05T18:40:43.872Z,33.17
2023-05-05T18:43:10.315Z,33.56
2023-05-05T18:45:38.746Z,34.28
2023-05-05T18:48:05.272Z,34.39
2023-05-05T18:50:31.880Z,34.93
2023-05-05T18:52:58.306Z,35.65
2023-05-05T18:55:24.782Z,35.56
2023-05-05T18:57:51.246Z,35.71
2023-05-05T19:00:18.006Z,36.02
2023-05-05T19:02:44.541Z,35.77
2023-05-05T19:05:11.217Z,36.09
2023-05-05T19:07:38.547Z,36.12
2023-05-05T19:10:05.152Z,36.41
2023-05-05T19:12:31.688Z,36.54
2023-05-05T19:14:58.154Z,36.61
2023-05-05T19:17:24.624Z,37.04
2023-05-05T19:19:51.295Z,36.75
2023-05-05T19:22:17.719Z,35.90
2023-05-05T19:24:44.191Z,35.85
2023-05-05T19:27:10.617Z,36.02
2023-05-05T19:29:37.109Z,36.01
2023-05-05T19:32:03.621Z,35.93
2023-05-05T19:34:30.220Z,35.83
2023-05-05T19:36:56.754Z,36.29
2023-05-05T19:39:23.183Z,36.42
2023-05-05T19:41:49.751Z,36.85
2023-05-05T19:44:16.162Z,37.14
2023-05-05T19:46:42.690Z,38.13
2023-05-05T19:49:09.217Z,37.40
2023-05-05T19:51:35.651Z,38.17
2023-05-05T19:54:02.167Z,38.36
2023-05-05T19:56:28.566Z,38.39
2023-05-05T19:58:54.970Z,38.07
2023-05-05T20:01:21.487Z,38.06
2023-05-05T20:03:48.027Z,37.85
2023-05-05T20:06:14.729Z,37.52
2023-05-05T20:08:41.125Z,37.80
2023-05-05T20:11:07.590Z,37.68
2023-05-05T20:13:34.072Z,37.99
2023-05-05T20:16:00.590Z,37.72
2023-05-05T20:18:27.128Z,37.65
2023-05-05T20:20:53.632Z,37.69
2023-05-05T20:23:21.344Z,38.06
2023-05-05T20:25:47.798Z,37.59
2023-05-05T20:28:14.240Z,37.56
2023-05-05T20:30:40.731Z,37.81
2023-05-05T20:33:07.360Z,37.43
2023-05-05T20:35:33.854Z,37.92
2023-05-05T20:38:00.341Z,37.67
2023-05-05T20:40:26.865Z,37.49
2023-05-05T20:42:53.241Z,38.79
2023-05-05T20:45:19.639Z,38.13
2023-05-05T20:47:46.099Z,37.95
2023-05-05T20:50:12.606Z,37.82
2023-05-05T20:52:39.026Z,37.39
2023-05-05T20:55:05.655Z,38.89
2023-05-05T20:57:32.066Z,39.78
2023-05-05T20:59:58.631Z,39.71
2023-05-05T21:02:25.220Z,39.72
2023-05-05T21:04:51.816Z,40.12
2023-05-05T21:07:18.259Z,40.10
2023-05-05T21:09:44.686Z,40.88
2023-05-05T21:12:12.870Z,40.76
2023-05-05T21:14:39.365Z,40.94
2023-05-05T21:17:05.817Z,39.88
2023-05-05T21:19:39.760Z,40.31
2023-05-05T21:22:06.168Z,40.27
2023-05-05T21:24:32.590Z,40.29
2023-05-05T21:26:59.216Z,40.17
2023-05-05T21:29:25.752Z,40.42
2023-05-05T21:31:52.329Z,40.30
2023-05-05T21:34:18.970Z,40.13
2023-05-05T21:36:45.393Z,40.01
2023-05-05T21:39:11.785Z,40.14
2023-05-05T21:41:38.187Z,39.54
2023-05-05T21:44:04.616Z,39.75
2023-05-05T21:46:31.250Z,40.21
2023-05-05T21:48:57.824Z,39.65
2023-05-05T21:51:26.497Z,39.17
2023-05-05T21:53:52.964Z,39.27
2023-05-05T21:56:19.491Z,40.02
2023-05-05T21:58:45.983Z,39.45
2023-05-05T22:01:14.471Z,39.55
2023-05-05T22:03:40.963Z,39.77
2023-05-05T22:06:10.189Z,39.95
2023-05-05T22:08:36.768Z,39.95
2023-05-05T22:11:03.154Z,39.55
2023-05-05T22:13:29.724Z,39.86
2023-05-05T22:15:56.169Z,40.73
2023-05-05T22:18:22.694Z,41.49
2023-05-05T22:20:49.108Z,41.32
2023-05-05T22:23:16.686Z,41.26
2023-05-05T22:25:43.110Z,41.83
2023-05-05T22:28:10.930Z,40.60
2023-05-05T22:30:37.304Z,40.40
2023-05-05T22:33:03.807Z,40.32
2023-05-05T22:35:30.555Z,39.89
2023-05-05T22:37:57.197Z,39.99
2023-05-05T22:40:23.582Z,39.54
2023-05-05T22:42:49.988Z,40.44
2023-05-05T22:45:16.409Z,40.58
2023-05-05T22:47:43.618Z,40.96
2023-05-05T22:50:12.280Z,41.54
2023-05-05T22:52:43.326Z,41.61
2023-05-05T22:55:11.657Z,42.01
2023-05-05T22:57:40.859Z,41.75
2023-05-05T23:00:07.376Z,42.03
2023-05-05T23:02:36.518Z,42.68
2023-05-05T23:05:02.941Z,42.67
2023-05-05T23:07:29.379Z,43.01
2023-05-05T23:09:55.764Z,43.22
2023-05-05T23:12:22.171Z,43.29
2023-05-05T23:14:51.564Z,43.35
2023-05-05T23:17:18.026Z,43.33
2023-05-05T23:19:44.422Z,43.59
2023-05-05T23:22:10.806Z,43.39
2023-05-05T23:24:37.268Z,43.41
2023-05-05T23:27:03.706Z,43.21
2023-05-05T23:29:32.493Z,43.07
2023-05-05T23:31:58.892Z,42.98
2023-05-05T23:34:25.568Z,43.13
2023-05-05T23:36:51.996Z,44.40
2023-05-05T23:39:20.461Z,44.88
2023-05-05T23:41:46.875Z,46.17
2023-05-05T23:44:16.030Z,46.96
2023-05-05T23:46:42.502Z,46.87
2023-05-05T23:49:08.985Z,47.07
2023-05-05T23:51:35.400Z,48.04
2023-05-05T23:54:02.091Z,49.32
2023-05-05T23:56:28.516Z,47.83
2023-05-05T23:58:57.261Z,48.44
